createdAt,value
2023-01-06T00:02:01.614Z,11.03
2023-01-06T00:06:08.187Z,11.05
2023-01-06T00:10:12.485Z,11.03
2023-01-06T00:14:15.661Z,11.04
2023-01-06T00:18:18.738Z,11.03
2023-01-06T00:22:23.316Z,11.06
2023-01-06T00:26:26.471Z,11.08
2023-01-06T00:30:29.507Z,11.15
2023-01-06T00:34:32.580Z,11.13
2023-01-06T00:38:38.715Z,11.16
2023-01-06T00:42:41.772Z,11.16
2023-01-06T00:46:44.870Z,11.17
2023-01-06T00:50:47.909Z,11.23
2023-01-06T00:54:52.330Z,11.14
2023-01-06T00:58:55.459Z,11.15
2023-01-06T01:02:58.566Z,11.12
2023-01-06T01:07:01.709Z,11.13
2023-01-06T01:11:07.526Z,11.05
2023-01-06T01:15:11.478Z,11.05
2023-01-06T01:19:15.597Z,11.07
2023-01-06T01:23:18.727Z,11.06
2023-01-06T01:27:23.122Z,11.02
2023-01-06T01:31:26.259Z,11.03
2023-01-06T01:35:29.365Z,10.96
2023-01-06T01:39:32.688Z,11.01
2023-01-06T01:43:48.071Z,11.02
2023-01-06T01:47:55.293Z,11.02
2023-01-06T01:51:59.109Z,11.04
2023-01-06T01:56:08.034Z,11.08
2023-01-06T02:00:13.197Z,11.08
2023-01-06T02:04:17.035Z,11.12
2023-01-06T02:08:27.654Z,11.11
2023-01-06T02:12:31.409Z,11.14
2023-01-06T02:16:56.957Z,11.14
2023-01-06T02:21:15.146Z,11.15
2023-01-06T02:25:53.808Z,11.19
2023-01-06T02:30:34.736Z,11.22
2023-01-06T02:34:52.536Z,11.22
2023-01-06T02:39:09.323Z,11.22
2023-01-06T02:43:22.633Z,11.24
2023-01-06T02:47:33.672Z,11.19
2023-01-06T02:51:50.462Z,11.12
2023-01-06T02:55:57.445Z,11.13
2023-01-06T03:00:07.441Z,11.11
2023-01-06T03:04:15.971Z,11.05
2023-01-06T03:08:27.271Z,11.07
2023-01-06T03:12:40.145Z,11.03
2023-01-06T03:16:44.430Z,11.03
2023-01-06T03:20:50.557Z,11.00
2023-01-06T03:24:55.546Z,11.04
2023-01-06T03:29:01.497Z,11.06
2023-01-06T03:33:40.989Z,11.03
2023-01-06T03:37:53.553Z,11.04
2023-01-06T03:42:35.627Z,11.06
2023-01-06T03:46:45.659Z,11.04
2023-01-06T03:50:54.487Z,11.11
2023-01-06T03:55:03.484Z,11.12
2023-01-06T03:59:13.320Z,11.13
2023-01-06T04:03:17.726Z,11.12
2023-01-06T04:07:21.761Z,11.12
2023-01-06T04:11:42.435Z,11.08
2023-01-06T04:15:48.033Z,11.10
2023-01-06T04:19:51.187Z,11.09
2023-01-06T04:23:55.489Z,11.09
2023-01-06T04:27:59.122Z,11.10
2023-01-06T04:32:04.948Z,11.01
2023-01-06T04:36:10.053Z,11.02
2023-01-06T04:40:15.897Z,10.95
2023-01-06T04:44:18.939Z,10.90
2023-01-06T04:48:23.365Z,10.94
2023-01-06T04:52:26.410Z,10.88
2023-01-06T04:56:29.492Z,10.91
2023-01-06T05:00:32.586Z,10.85
2023-01-06T05:04:46.972Z,10.80
2023-01-06T05:08:50.936Z,10.81
2023-01-06T05:12:54.100Z,10.78
2023-01-06T05:16:57.092Z,10.86
2023-01-06T05:21:01.518Z,10.86
2023-01-06T05:25:04.979Z,10.88
2023-01-06T05:29:08.009Z,10.88
2023-01-06T05:33:11.174Z,10.94
2023-01-06T05:37:15.533Z,10.90
2023-01-06T05:41:18.591Z,10.93
2023-01-06T05:45:21.643Z,10.91
2023-01-06T05:49:24.662Z,10.87
2023-01-06T05:53:32.290Z,10.80
2023-01-06T05:57:35.374Z,10.86
2023-01-06T06:01:38.605Z,10.80
2023-01-06T06:05:41.830Z,10.82
2023-01-06T06:09:46.306Z,10.87
2023-01-06T06:13:50.847Z,10.83
2023-01-06T06:17:53.920Z,10.82
2023-01-06T06:21:57.073Z,10.82
2023-01-06T06:26:01.537Z,10.83
2023-01-06T06:30:05.051Z,10.90
2023-01-06T06:34:08.136Z,10.92
2023-01-06T06:38:11.179Z,10.95
2023-01-06T06:42:15.564Z,10.98
2023-01-06T06:46:19.725Z,10.97
2023-01-06T06:50:22.795Z,10.94
2023-01-06T06:54:25.873Z,10.88
2023-01-06T06:58:30.341Z,10.77
2023-01-06T07:02:33.376Z,10.76
2023-01-06T07:06:36.681Z,10.73
2023-01-06T07:10:39.841Z,10.82
2023-01-06T07:14:44.293Z,10.75
2023-01-06T07:18:48.319Z,10.74
2023-01-06T07:22:51.472Z,10.81
2023-01-06T07:26:54.551Z,10.85
2023-01-06T07:30:59.062Z,10.94
2023-01-06T07:35:02.156Z,11.00
2023-01-06T07:39:05.440Z,10.97
2023-01-06T07:43:10.646Z,10.98
2023-01-06T07:47:15.322Z,11.03
2023-01-06T07:51:19.069Z,11.03
2023-01-06T07:55:22.334Z,11.04
2023-01-06T07:59:25.441Z,11.08
2023-01-06T08:03:29.883Z,11.08
2023-01-06T08:07:33.209Z,11.04
2023-01-06T08:11:36.476Z,11.06
2023-01-06T08:15:40.247Z,11.08
2023-01-06T08:19:44.752Z,11.08
2023-01-06T08:23:47.953Z,11.07
2023-01-06T08:27:51.057Z,11.09
2023-01-06T08:32:02.229Z,11.07
2023-01-06T08:36:13.730Z,11.05
2023-01-06T08:40:16.934Z,11.05
2023-01-06T08:44:20.076Z,11.05
2023-01-06T08:48:23.149Z,11.00
2023-01-06T08:52:28.670Z,10.84
2023-01-06T08:56:32.993Z,10.64
2023-01-06T09:00:36.910Z,10.50
2023-01-06T09:04:40.045Z,10.40
2023-01-06T09:08:44.605Z,10.41
2023-01-06T09:12:49.024Z,10.37
2023-01-06T09:16:52.183Z,10.36
2023-01-06T09:20:55.346Z,10.38
2023-01-06T09:24:59.775Z,10.39
2023-01-06T09:29:02.963Z,10.40
2023-01-06T09:33:06.122Z,10.37
2023-01-06T09:37:09.612Z,10.32
2023-01-06T09:41:44.784Z,10.31
2023-01-06T09:45:54.630Z,10.30
2023-01-06T09:50:06.789Z,10.30
2023-01-06T09:54:16.581Z,10.34
2023-01-06T09:58:26.892Z,10.33
2023-01-06T10:02:34.472Z,10.40
2023-01-06T10:06:41.918Z,10.45
2023-01-06T10:10:55.472Z,10.47
2023-01-06T10:15:15.783Z,10.48
2023-01-06T10:19:30.746Z,10.51
2023-01-06T10:23:56.350Z,10.59
2023-01-06T10:28:06.252Z,10.63
2023-01-06T10:32:17.211Z,10.71
2023-01-06T10:36:29.236Z,10.82
2023-01-06T10:40:33.286Z,10.90
2023-01-06T10:44:36.438Z,10.98
2023-01-06T10:48:41.724Z,11.05
2023-01-06T10:52:46.056Z,11.11
2023-01-06T10:56:53.654Z,11.19
2023-01-06T11:01:02.127Z,11.29
2023-01-06T11:05:07.808Z,11.53
2023-01-06T11:09:26.202Z,11.68
2023-01-06T11:13:34.487Z,11.75
2023-01-06T11:17:37.808Z,11.58
2023-01-06T11:21:44.516Z,11.61
2023-01-06T11:26:02.366Z,11.69
2023-01-06T11:30:22.644Z,11.84
2023-01-06T11:34:29.100Z,11.86
2023-01-06T11:38:41.335Z,12.01
2023-01-06T11:42:44.770Z,11.90
2023-01-06T11:46:51.611Z,11.94
2023-01-06T11:50:56.987Z,11.86
2023-01-06T11:55:03.440Z,11.61
2023-01-06T11:59:11.266Z,11.46
2023-01-06T12:03:22.220Z,11.33
2023-01-06T12:07:33.929Z,11.22
2023-01-06T12:11:46.356Z,11.15
2023-01-06T12:15:58.842Z,11.24
2023-01-06T12:20:07.122Z,11.22
2023-01-06T12:24:17.257Z,11.12
2023-01-06T12:28:28.291Z,11.10
2023-01-06T12:32:39.012Z,10.96
2023-01-06T12:36:46.279Z,10.95
2023-01-06T12:40:54.147Z,10.99
2023-01-06T12:45:04.529Z,10.96
2023-01-06T12:49:19.404Z,10.96
2023-01-06T12:53:26.052Z,10.98
2023-01-06T12:57:54.958Z,11.12
2023-01-06T13:02:14.399Z,11.30
2023-01-06T13:06:27.226Z,11.38
2023-01-06T13:10:38.070Z,11.24
2023-01-06T13:14:46.432Z,11.34
2023-01-06T13:19:02.756Z,11.42
2023-01-06T13:23:22.396Z,11.36
2023-01-06T13:27:40.315Z,11.33
2023-01-06T13:32:04.680Z,11.31
2023-01-06T13:36:28.744Z,11.29
2023-01-06T13:40:37.560Z,11.31
2023-01-06T13:44:41.381Z,11.29
2023-01-06T13:48:49.375Z,11.34
2023-01-06T13:52:55.887Z,11.28
2023-01-06T13:57:25.965Z,11.24
2023-01-06T14:01:34.278Z,11.20
2023-01-06T14:05:55.569Z,11.19
2023-01-06T14:10:01.795Z,11.15
2023-01-06T14:14:07.464Z,11.10
2023-01-06T14:18:32.212Z,11.04
2023-01-06T14:22:35.467Z,10.99
2023-01-06T14:26:58.482Z,10.95
2023-01-06T14:31:39.457Z,10.92
2023-01-06T14:35:46.307Z,10.86
2023-01-06T14:39:51.704Z,10.90
2023-01-06T14:44:03.395Z,10.83
2023-01-06T14:48:11.289Z,10.81
2023-01-06T14:52:19.307Z,10.81
2023-01-06T14:56:25.439Z,10.77
2023-01-06T15:00:30.949Z,10.81
2023-01-06T15:04:35.986Z,10.79
2023-01-06T15:08:39.146Z,10.80
2023-01-06T15:12:56.046Z,10.80
2023-01-06T15:17:03.694Z,10.83
2023-01-06T15:21:07.152Z,10.83
2023-01-06T15:25:21.098Z,10.83
2023-01-06T15:29:26.259Z,10.82
2023-01-06T15:33:36.924Z,10.84
2023-01-06T15:37:40.326Z,10.84
2023-01-06T15:41:44.879Z,10.82
2023-01-06T15:45:58.500Z,10.87
2023-01-06T15:50:06.274Z,10.87
2023-01-06T15:54:15.085Z,10.91
2023-01-06T15:58:23.498Z,10.89
2023-01-06T16:02:30.477Z,10.87
2023-01-06T16:06:37.190Z,10.84
2023-01-06T16:10:40.383Z,10.84
2023-01-06T16:14:46.869Z,10.79
2023-01-06T16:18:51.835Z,10.78
2023-01-06T16:22:57.159Z,10.76
2023-01-06T16:27:03.296Z,10.78
2023-01-06T16:31:09.318Z,10.77
2023-01-06T16:35:15.004Z,10.79
2023-01-06T16:39:19.672Z,10.77
2023-01-06T16:43:22.749Z,10.73
2023-01-06T16:47:26.106Z,10.70
2023-01-06T16:51:29.892Z,10.77
2023-01-06T16:55:34.710Z,10.75
2023-01-06T16:59:37.841Z,10.77
2023-01-06T17:03:41.615Z,10.77
2023-01-06T17:07:44.873Z,10.79
2023-01-06T17:11:50.461Z,10.81
2023-01-06T17:15:59.316Z,10.82
2023-01-06T17:20:02.838Z,10.85
2023-01-06T17:24:12.593Z,10.85
2023-01-06T17:28:21.979Z,10.79
2023-01-06T17:32:30.940Z,10.76
2023-01-06T17:36:38.681Z,10.75
2023-01-06T17:40:41.886Z,10.65
2023-01-06T17:44:48.433Z,10.69
2023-01-06T17:48:58.425Z,10.75
2023-01-06T17:53:30.838Z,10.68
2023-01-06T17:57:34.023Z,10.69
2023-01-06T18:01:38.538Z,10.83
2023-01-06T18:05:59.543Z,10.88
2023-01-06T18:10:02.668Z,10.92
2023-01-06T18:14:19.833Z,10.90
2023-01-06T18:18:25.970Z,10.83
2023-01-06T18:22:33.883Z,10.92
2023-01-06T18:26:40.987Z,10.91
2023-01-06T18:30:44.213Z,10.93
2023-01-06T18:34:49.896Z,10.90
2023-01-06T18:38:53.813Z,10.90
2023-01-06T18:42:57.232Z,11.00
2023-01-06T18:47:01.671Z,11.02
2023-01-06T18:51:17.411Z,10.91
2023-01-06T18:55:24.867Z,10.89
2023-01-06T18:59:28.833Z,10.90
2023-01-06T19:03:39.215Z,10.95
2023-01-06T19:07:43.728Z,10.99
2023-01-06T19:11:48.781Z,11.02
2023-01-06T19:15:52.250Z,11.06
2023-01-06T19:19:56.948Z,11.03
2023-01-06T19:24:01.969Z,10.97
2023-01-06T19:28:13.594Z,11.01
2023-01-06T19:32:16.647Z,11.01
2023-01-06T19:36:41.640Z,11.03
2023-01-06T19:40:48.419Z,11.06
2023-01-06T19:44:54.654Z,11.08
2023-01-06T19:49:00.988Z,11.15
2023-01-06T19:53:04.023Z,11.20
2023-01-06T19:57:20.637Z,11.21
2023-01-06T20:01:27.144Z,11.29
2023-01-06T20:05:32.376Z,11.32
2023-01-06T20:09:35.438Z,11.33
2023-01-06T20:13:39.971Z,11.34
2023-01-06T20:17:43.091Z,11.41
2023-01-06T20:21:46.330Z,11.41
2023-01-06T20:25:49.372Z,11.45
2023-01-06T20:29:54.263Z,11.48
2023-01-06T20:33:57.346Z,11.56
2023-01-06T20:38:00.450Z,11.56
2023-01-06T20:42:04.431Z,11.52
2023-01-06T20:46:08.984Z,11.56
2023-01-06T20:50:14.447Z,11.55
2023-01-06T20:54:17.536Z,11.60
2023-01-06T20:58:20.599Z,11.59
2023-01-06T21:02:25.266Z,11.62
2023-01-06T21:06:28.362Z,11.59
2023-01-06T21:10:31.444Z,11.63
2023-01-06T21:14:35.458Z,11.61
2023-01-06T21:18:39.833Z,11.60
2023-01-06T21:22:42.912Z,11.61
2023-01-06T21:26:45.977Z,11.56
2023-01-06T21:30:49.150Z,11.59
2023-01-06T21:34:53.626Z,11.58
2023-01-06T21:38:56.706Z,11.51
2023-01-06T21:43:11.819Z,11.38
2023-01-06T21:47:14.918Z,11.22
2023-01-06T21:51:19.703Z,11.22
2023-01-06T21:55:24.098Z,11.04
2023-01-06T21:59:27.292Z,11.01
2023-01-06T22:03:30.450Z,10.99
2023-01-06T22:07:37.449Z,10.95
2023-01-06T22:11:41.338Z,10.93
2023-01-06T22:15:44.740Z,10.89
2023-01-06T22:19:48.830Z,10.89
2023-01-06T22:23:55.926Z,10.82
2023-01-06T22:27:59.384Z,10.72
2023-01-06T22:32:04.276Z,10.68
2023-01-06T22:36:08.196Z,10.63
2023-01-06T22:40:14.673Z,10.55
2023-01-06T22:44:17.769Z,10.47
2023-01-06T22:48:20.836Z,10.40
2023-01-06T22:52:23.983Z,10.39
2023-01-06T22:56:28.520Z,10.40
2023-01-06T23:00:31.569Z,10.34
2023-01-06T23:04:34.611Z,10.38
2023-01-06T23:08:48.124Z,10.36
2023-01-06T23:12:59.324Z,10.41
2023-01-06T23:17:02.400Z,10.38
2023-01-06T23:21:07.716Z,10.43
2023-01-06T23:25:10.967Z,10.45
2023-01-06T23:29:16.607Z,10.41
2023-01-06T23:33:19.619Z,10.36
2023-01-06T23:37:22.699Z,10.41
2023-01-06T23:41:28.426Z,10.45
2023-01-06T23:45:32.797Z,10.50
2023-01-06T23:49:35.816Z,10.46
2023-01-06T23:53:39.805Z,10.44
2023-01-06T23:57:42.844Z,10.42
